createdAt,value
2018-03-30T00:00:49.849Z,6.64
2018-03-30T00:03:18.112Z,6.69
2018-03-30T00:05:46.555Z,6.75
2018-03-30T00:08:14.871Z,6.77
2018-03-30T00:10:48.759Z,6.68
2018-03-30T00:13:17.019Z,6.75
2018-03-30T00:15:45.334Z,6.77
2018-03-30T00:18:13.609Z,6.73
2018-03-30T00:20:42.605Z,6.80
2018-03-30T00:23:10.885Z,6.82
2018-03-30T00:25:39.233Z,6.83
2018-03-30T00:28:07.507Z,6.80
2018-03-30T00:30:35.861Z,6.86
2018-03-30T00:33:04.128Z,6.89
2018-03-30T00:35:32.441Z,6.84
2018-03-30T00:38:00.708Z,6.88
2018-03-30T00:40:29.149Z,6.83
2018-03-30T00:42:57.404Z,6.87
2018-03-30T00:45:25.717Z,6.89
2018-03-30T00:47:54.054Z,6.72
2018-03-30T00:50:22.324Z,6.79
2018-03-30T00:52:50.642Z,6.67
2018-03-30T00:55:18.937Z,6.63
2018-03-30T00:57:47.282Z,6.71
2018-03-30T01:00:15.865Z,6.76
2018-03-30T01:02:44.204Z,6.82
2018-03-30T01:05:12.816Z,6.82
2018-03-30T01:07:41.096Z,6.82
2018-03-30T01:10:09.373Z,6.70
2018-03-30T01:12:37.656Z,6.65
2018-03-30T01:15:05.915Z,6.61
2018-03-30T01:17:34.221Z,6.62
2018-03-30T01:20:03.169Z,6.69
2018-03-30T01:22:31.421Z,6.66
2018-03-30T01:24:59.715Z,6.70
2018-03-30T01:27:28.002Z,6.74
2018-03-30T01:29:56.277Z,6.78
2018-03-30T01:32:24.570Z,6.80
2018-03-30T01:34:52.844Z,6.77
2018-03-30T01:37:21.168Z,6.74
2018-03-30T01:39:49.444Z,6.77
2018-03-30T01:42:18.048Z,6.71
2018-03-30T01:44:46.332Z,6.74
2018-03-30T01:47:14.590Z,6.65
2018-03-30T01:49:42.867Z,6.61
2018-03-30T01:52:11.802Z,6.66
2018-03-30T01:54:40.102Z,6.61
2018-03-30T01:57:08.352Z,6.52
2018-03-30T01:59:36.657Z,6.52
2018-03-30T02:02:04.921Z,6.58
2018-03-30T02:04:33.195Z,6.56
2018-03-30T02:07:01.476Z,6.52
2018-03-30T02:09:29.781Z,6.45
2018-03-30T02:11:58.072Z,6.36
2018-03-30T02:14:26.355Z,6.27
2018-03-30T02:16:54.616Z,6.31
2018-03-30T02:19:22.904Z,6.33
2018-03-30T02:21:51.185Z,6.34
2018-03-30T02:24:19.486Z,6.35
2018-03-30T02:26:47.756Z,6.32
2018-03-30T02:29:16.056Z,6.30
2018-03-30T02:31:44.324Z,6.11
2018-03-30T02:34:13.287Z,6.00
2018-03-30T02:36:41.565Z,5.99
2018-03-30T02:39:09.889Z,5.96
2018-03-30T02:41:38.151Z,5.87
2018-03-30T02:44:06.464Z,5.82
2018-03-30T02:46:34.753Z,5.83
2018-03-30T02:49:03.032Z,5.90
2018-03-30T02:51:31.351Z,5.96
2018-03-30T02:53:59.621Z,5.90
2018-03-30T02:56:27.902Z,5.91
2018-03-30T02:58:56.190Z,5.96
2018-03-30T03:01:24.509Z,5.91
2018-03-30T03:03:52.770Z,5.86
2018-03-30T03:06:21.117Z,5.73
2018-03-30T03:08:49.474Z,5.66
2018-03-30T03:11:17.774Z,5.65
2018-03-30T03:13:46.059Z,5.69
2018-03-30T03:16:14.400Z,5.53
2018-03-30T03:18:42.730Z,5.57
2018-03-30T03:21:11.050Z,5.56
2018-03-30T03:23:39.293Z,5.50
2018-03-30T03:26:07.641Z,5.42
2018-03-30T03:28:35.992Z,5.48
2018-03-30T03:31:05.085Z,5.40
2018-03-30T03:33:33.333Z,5.33
2018-03-30T03:36:01.665Z,5.26
2018-03-30T03:38:29.960Z,5.29
2018-03-30T03:40:58.742Z,5.16
2018-03-30T03:43:27.031Z,5.16
2018-03-30T03:45:55.300Z,5.15
2018-03-30T03:48:23.574Z,5.09
2018-03-30T03:50:51.853Z,5.04
2018-03-30T03:53:20.141Z,5.07
2018-03-30T03:55:48.396Z,5.16
2018-03-30T03:58:16.692Z,5.18
2018-03-30T04:00:44.951Z,5.18
2018-03-30T04:03:13.235Z,5.12
2018-03-30T04:05:41.507Z,5.02
2018-03-30T04:08:09.798Z,5.01
2018-03-30T04:10:38.067Z,4.94
2018-03-30T04:13:06.411Z,4.90
2018-03-30T04:15:34.718Z,4.94
2018-03-30T04:18:02.995Z,5.01
2018-03-30T04:20:31.267Z,5.03
2018-03-30T04:22:59.719Z,4.90
2018-03-30T04:25:28.041Z,4.84
2018-03-30T04:27:56.344Z,4.81
2018-03-30T04:30:24.628Z,4.78
2018-03-30T04:32:52.962Z,4.77
2018-03-30T04:35:21.263Z,4.76
2018-03-30T04:37:49.578Z,4.69
2018-03-30T04:40:17.920Z,4.54
2018-03-30T04:42:46.171Z,4.56
2018-03-30T04:45:14.480Z,4.67
2018-03-30T04:47:42.736Z,4.77
2018-03-30T04:50:11.558Z,4.77
2018-03-30T04:52:39.825Z,4.62
2018-03-30T04:55:08.181Z,4.54
2018-03-30T04:57:36.505Z,4.53
2018-03-30T05:00:04.848Z,4.63
2018-03-30T05:02:33.124Z,4.66
2018-03-30T05:05:01.420Z,4.54
2018-03-30T05:07:29.710Z,4.36
2018-03-30T05:09:57.975Z,4.36
2018-03-30T05:12:26.254Z,4.40
2018-03-30T05:14:54.578Z,4.50
2018-03-30T05:17:22.841Z,4.57
2018-03-30T05:19:51.116Z,4.57
2018-03-30T05:22:19.379Z,4.56
2018-03-30T05:24:47.833Z,4.61
2018-03-30T05:27:16.095Z,4.58
2018-03-30T05:29:44.392Z,4.49
2018-03-30T05:32:13.872Z,4.39
2018-03-30T05:34:42.171Z,4.31
2018-03-30T05:37:10.448Z,4.31
2018-03-30T05:39:38.738Z,4.31
2018-03-30T05:42:07.029Z,4.46
2018-03-30T05:44:35.364Z,4.56
2018-03-30T05:47:04.678Z,4.51
2018-03-30T05:49:32.941Z,4.68
2018-03-30T05:52:01.279Z,4.71
2018-03-30T05:54:29.506Z,4.66
2018-03-30T05:56:57.795Z,4.67
2018-03-30T05:59:26.066Z,4.72
2018-03-30T06:01:54.379Z,4.71
2018-03-30T06:04:22.645Z,4.74
2018-03-30T06:06:50.977Z,4.81
2018-03-30T06:09:19.263Z,4.75
2018-03-30T06:11:47.568Z,4.90
2018-03-30T06:14:15.868Z,4.90
2018-03-30T06:16:44.200Z,4.98
2018-03-30T06:19:12.541Z,4.80
2018-03-30T06:21:40.745Z,4.85
2018-03-30T06:24:09.136Z,4.95
2018-03-30T06:26:37.432Z,5.08
2018-03-30T06:29:05.688Z,5.08
2018-03-30T06:31:33.976Z,5.11
2018-03-30T06:34:02.347Z,5.05
2018-03-30T06:36:30.624Z,5.22
2018-03-30T06:38:58.930Z,5.24
2018-03-30T06:41:27.204Z,5.28
2018-03-30T06:43:55.501Z,5.33
2018-03-30T06:46:23.789Z,5.35
2018-03-30T06:48:52.079Z,5.43
2018-03-30T06:51:20.354Z,5.50
2018-03-30T06:53:48.625Z,5.62
2018-03-30T06:56:16.844Z,5.61
2018-03-30T06:58:45.138Z,5.73
2018-03-30T07:01:13.384Z,5.81
2018-03-30T07:03:41.673Z,5.88
2018-03-30T07:06:09.940Z,6.00
2018-03-30T07:08:38.221Z,6.04
2018-03-30T07:11:07.210Z,6.06
2018-03-30T07:13:35.628Z,6.16
2018-03-30T07:16:03.922Z,6.26
2018-03-30T07:18:32.228Z,6.35
2018-03-30T07:21:00.507Z,6.38
2018-03-30T07:23:28.796Z,6.51
2018-03-30T07:25:57.056Z,6.60
2018-03-30T07:28:27.007Z,6.66
2018-03-30T07:30:55.346Z,6.87
2018-03-30T07:33:23.640Z,7.10
2018-03-30T07:35:52.421Z,7.24
2018-03-30T07:38:20.699Z,7.36
2018-03-30T07:40:48.998Z,7.48
2018-03-30T07:43:17.288Z,7.65
2018-03-30T07:45:45.592Z,7.88
2018-03-30T07:48:13.872Z,8.04
2018-03-30T07:50:42.187Z,8.17
2018-03-30T07:53:10.480Z,8.28
2018-03-30T07:55:39.539Z,8.37
2018-03-30T07:58:07.836Z,8.51
2018-03-30T08:00:36.155Z,8.52
2018-03-30T08:03:05.108Z,8.40
2018-03-30T08:05:33.416Z,8.54
2018-03-30T08:08:01.682Z,8.69
2018-03-30T08:10:30.021Z,8.72
2018-03-30T08:12:58.325Z,8.82
2018-03-30T08:15:26.601Z,8.85
2018-03-30T08:17:54.877Z,8.92
2018-03-30T08:20:23.200Z,9.03
2018-03-30T08:22:51.515Z,9.16
2018-03-30T08:25:19.874Z,9.29
2018-03-30T08:27:48.132Z,9.40
2018-03-30T08:30:17.216Z,9.44
2018-03-30T08:32:45.552Z,9.53
2018-03-30T08:35:14.416Z,9.65
2018-03-30T08:37:42.718Z,9.79
2018-03-30T08:40:10.996Z,9.90
2018-03-30T08:42:39.304Z,10.02
2018-03-30T08:45:07.623Z,10.14
2018-03-30T08:47:35.934Z,10.17
2018-03-30T08:50:04.215Z,10.24
2018-03-30T08:52:32.545Z,10.27
2018-03-30T08:55:00.813Z,10.32
2018-03-30T08:57:29.170Z,10.28
2018-03-30T08:59:57.479Z,10.28
2018-03-30T09:02:25.759Z,10.39
2018-03-30T09:04:54.036Z,10.46
2018-03-30T09:07:22.396Z,10.25
2018-03-30T09:09:50.672Z,10.66
2018-03-30T09:12:18.977Z,10.70
2018-03-30T09:14:47.310Z,10.83
2018-03-30T09:17:15.614Z,10.94
2018-03-30T09:19:43.890Z,11.04
2018-03-30T09:22:12.244Z,11.15
2018-03-30T09:24:40.545Z,11.26
2018-03-30T09:27:08.907Z,11.39
2018-03-30T09:29:37.122Z,11.55
2018-03-30T09:32:05.479Z,11.66
2018-03-30T09:34:33.759Z,11.72
2018-03-30T09:37:02.137Z,11.85
2018-03-30T09:39:30.427Z,11.99
2018-03-30T09:41:58.728Z,12.12
2018-03-30T09:44:27.080Z,12.21
2018-03-30T09:46:55.343Z,12.33
2018-03-30T09:49:23.656Z,12.41
2018-03-30T09:51:51.908Z,12.50
2018-03-30T09:54:20.264Z,12.38
2018-03-30T09:56:48.560Z,12.45
2018-03-30T09:59:16.902Z,12.52
2018-03-30T10:01:56.207Z,12.73
2018-03-30T10:04:28.674Z,12.79
2018-03-30T10:06:57.628Z,12.99
2018-03-30T10:09:25.981Z,13.09
2018-03-30T10:11:54.330Z,13.15
2018-03-30T10:14:22.658Z,13.24
2018-03-30T10:16:51.120Z,13.27
2018-03-30T10:19:19.479Z,13.40
2018-03-30T10:21:47.812Z,13.48
2018-03-30T10:24:16.161Z,13.54
2018-03-30T10:26:45.223Z,13.62
2018-03-30T10:29:13.556Z,13.77
2018-03-30T10:31:41.833Z,13.90
2018-03-30T10:34:10.144Z,14.02
2018-03-30T10:36:39.344Z,14.11
2018-03-30T10:39:08.588Z,14.23
2018-03-30T10:41:37.800Z,14.20
2018-03-30T10:44:06.265Z,14.25
2018-03-30T10:46:34.693Z,14.30
2018-03-30T10:49:02.924Z,14.34
2018-03-30T10:51:31.260Z,14.37
2018-03-30T10:53:59.702Z,14.33
2018-03-30T10:56:28.040Z,14.37
2018-03-30T10:58:56.323Z,14.51
2018-03-30T11:01:24.645Z,14.61
2018-03-30T11:03:53.072Z,14.61
2018-03-30T11:06:21.324Z,14.67
2018-03-30T11:08:49.643Z,14.69
2018-03-30T11:11:18.985Z,14.66
2018-03-30T11:13:47.264Z,14.69
2018-03-30T11:16:15.595Z,14.63
2018-03-30T11:18:43.872Z,14.57
2018-03-30T11:21:12.202Z,14.62
2018-03-30T11:23:40.481Z,14.58
2018-03-30T11:26:08.847Z,14.56
2018-03-30T11:28:37.168Z,14.64
2018-03-30T11:31:05.461Z,14.60
2018-03-30T11:33:33.715Z,14.61
2018-03-30T11:36:02.068Z,14.56
2018-03-30T11:38:30.373Z,14.53
2018-03-30T11:40:58.683Z,14.43
2018-03-30T11:43:27.477Z,14.48
2018-03-30T11:45:56.602Z,14.42
2018-03-30T11:48:24.897Z,14.43
2018-03-30T11:50:53.225Z,14.36
2018-03-30T11:53:21.510Z,14.33
2018-03-30T11:55:50.383Z,14.26
2018-03-30T11:58:18.654Z,14.29
2018-03-30T12:00:46.909Z,14.24
2018-03-30T12:03:15.250Z,14.14
2018-03-30T12:05:43.556Z,14.09
2018-03-30T12:08:11.876Z,14.12
2018-03-30T12:10:40.111Z,14.03
2018-03-30T12:13:08.420Z,14.05
2018-03-30T12:15:36.782Z,14.15
2018-03-30T12:18:05.094Z,14.17
2018-03-30T12:20:33.370Z,14.11
2018-03-30T12:23:01.674Z,14.18
2018-03-30T12:25:29.951Z,14.25
2018-03-30T12:27:58.243Z,14.28
2018-03-30T12:30:26.722Z,14.27
2018-03-30T12:32:55.004Z,14.20
2018-03-30T12:35:23.496Z,14.20
2018-03-30T12:37:52.671Z,14.14
2018-03-30T12:40:20.970Z,14.11
2018-03-30T12:42:49.272Z,14.05
2018-03-30T12:45:18.422Z,13.84
2018-03-30T12:47:46.768Z,13.85
2018-03-30T12:50:15.067Z,13.84
2018-03-30T12:52:43.339Z,13.86
2018-03-30T12:55:11.721Z,13.86
2018-03-30T12:57:39.994Z,13.75
2018-03-30T13:00:09.109Z,13.75
2018-03-30T13:02:37.391Z,13.63
2018-03-30T13:05:05.829Z,13.41
2018-03-30T13:07:34.139Z,13.22
2018-03-30T13:10:02.472Z,13.29
2018-03-30T13:12:30.780Z,13.31
2018-03-30T13:14:59.468Z,13.41
2018-03-30T13:17:27.769Z,13.39
2018-03-30T13:19:56.125Z,13.38
2018-03-30T13:22:24.414Z,13.34
2018-03-30T13:24:52.771Z,13.18
2018-03-30T13:27:21.012Z,13.04
2018-03-30T13:29:49.326Z,13.02
2018-03-30T13:32:17.649Z,12.85
2018-03-30T13:34:45.968Z,12.93
2018-03-30T13:37:15.374Z,12.90
2018-03-30T13:39:43.689Z,12.88
2018-03-30T13:42:13.065Z,12.80
2018-03-30T13:44:41.484Z,12.72
2018-03-30T13:47:09.826Z,12.70
2018-03-30T13:49:38.214Z,12.61
2018-03-30T13:55:09.491Z,12.70
2018-03-30T13:57:45.322Z,12.73
2018-03-30T14:00:18.964Z,12.71
2018-03-30T14:02:50.646Z,12.67
2018-03-30T14:05:26.642Z,12.71
2018-03-30T14:07:57.409Z,12.67
2018-03-30T14:10:36.333Z,12.69
2018-03-30T14:13:05.416Z,12.70
2018-03-30T14:15:33.687Z,12.65
2018-03-30T14:18:07.417Z,12.44
2018-03-30T14:20:36.508Z,12.31
2018-03-30T14:23:06.447Z,12.25
2018-03-30T14:25:38.788Z,12.27
2018-03-30T14:28:07.945Z,12.27
2018-03-30T14:30:48.840Z,12.21
2018-03-30T14:33:17.964Z,12.36
2018-03-30T14:35:52.641Z,12.47
2018-03-30T14:38:26.291Z,12.50
2018-03-30T14:40:54.549Z,12.41
2018-03-30T14:43:27.191Z,12.38
2018-03-30T14:46:01.877Z,12.37
2018-03-30T14:48:39.963Z,12.52
2018-03-30T14:51:16.037Z,12.64
2018-03-30T14:53:54.940Z,12.54
2018-03-30T14:59:37.416Z,12.43
2018-03-30T15:02:13.564Z,12.53
2018-03-30T15:04:46.305Z,12.39
2018-03-30T15:07:30.217Z,12.30
2018-03-30T15:12:56.916Z,11.97
2018-03-30T15:15:49.109Z,12.01
2018-03-30T15:18:18.626Z,12.14
2018-03-30T15:20:49.745Z,12.04
2018-03-30T15:23:22.712Z,11.95
2018-03-30T15:25:59.581Z,12.06
2018-03-30T15:28:36.911Z,12.16
2018-03-30T15:31:11.683Z,12.16
2018-03-30T15:33:41.736Z,12.18
2018-03-30T15:36:14.908Z,12.14
2018-03-30T15:38:43.185Z,12.15
2018-03-30T15:41:11.524Z,12.11
2018-03-30T15:43:41.425Z,12.04
2018-03-30T15:46:35.311Z,12.07
2018-03-30T15:49:03.613Z,12.03
2018-03-30T15:51:35.127Z,11.96
2018-03-30T15:54:02.915Z,11.76
2018-03-30T15:56:32.172Z,11.75
2018-03-30T15:59:00.882Z,11.81
2018-03-30T16:01:29.266Z,11.84
2018-03-30T16:03:57.524Z,11.74
2018-03-30T16:06:25.828Z,11.67
2018-03-30T16:08:54.126Z,11.55
2018-03-30T16:11:28.683Z,11.60
2018-03-30T16:13:57.012Z,11.51
2018-03-30T16:16:25.340Z,11.43
2018-03-30T16:18:56.017Z,11.30
2018-03-30T16:21:23.836Z,11.18
2018-03-30T16:23:51.616Z,11.09
2018-03-30T16:26:20.999Z,10.99
2018-03-30T16:28:48.740Z,10.87
2018-03-30T16:31:16.493Z,10.80
2018-03-30T16:33:44.252Z,10.89
2018-03-30T16:36:12.060Z,10.86
2018-03-30T16:41:13.970Z,10.76
2018-03-30T16:43:41.753Z,10.83
2018-03-30T16:46:09.655Z,10.91
2018-03-30T16:48:37.457Z,10.92
2018-03-30T16:51:05.195Z,11.07
2018-03-30T16:53:32.954Z,11.08
2018-03-30T16:56:00.687Z,11.05
2018-03-30T16:58:28.518Z,10.89
2018-03-30T17:00:56.239Z,10.78
2018-03-30T17:03:24.015Z,10.85
2018-03-30T17:05:51.790Z,10.54
2018-03-30T17:08:19.614Z,10.67
2018-03-30T17:10:47.378Z,10.72
2018-03-30T17:13:15.164Z,10.75
2018-03-30T17:15:42.896Z,10.48
2018-03-30T17:18:10.661Z,10.24
2018-03-30T17:20:38.401Z,10.18
2018-03-30T17:23:06.191Z,10.16
2018-03-30T17:25:34.902Z,10.14
2018-03-30T17:28:04.509Z,10.33
2018-03-30T17:30:32.489Z,10.45
2018-03-30T17:33:00.249Z,10.43
2018-03-30T17:35:28.398Z,10.51
2018-03-30T17:37:56.153Z,10.61
2018-03-30T17:40:23.901Z,10.69
2018-03-30T17:42:51.641Z,10.60
2018-03-30T17:45:19.802Z,10.55
2018-03-30T17:47:47.573Z,10.41
2018-03-30T17:50:15.333Z,10.42
2018-03-30T17:52:43.114Z,10.33
2018-03-30T17:55:10.849Z,10.25
2018-03-30T17:57:38.635Z,10.19
2018-03-30T18:00:06.442Z,10.36
2018-03-30T18:02:34.287Z,10.50
2018-03-30T18:05:02.132Z,10.57
2018-03-30T18:07:29.869Z,10.61
2018-03-30T18:09:57.741Z,10.64
2018-03-30T18:12:25.465Z,10.68
2018-03-30T18:14:53.612Z,10.67
2018-03-30T18:17:21.341Z,10.67
2018-03-30T18:19:49.145Z,10.55
2018-03-30T18:22:16.887Z,10.63
2018-03-30T18:24:46.191Z,10.61
2018-03-30T18:27:14.067Z,10.70
2018-03-30T18:29:42.202Z,10.70
2018-03-30T18:32:10.009Z,10.67
2018-03-30T18:34:37.764Z,10.69
2018-03-30T18:37:05.674Z,10.70
2018-03-30T18:39:33.365Z,10.56
2018-03-30T18:42:01.509Z,10.53
2018-03-30T18:44:29.331Z,10.52
2018-03-30T18:46:57.323Z,10.50
2018-03-30T18:49:25.071Z,10.52
2018-03-30T18:51:53.188Z,10.59
2018-03-30T18:54:21.060Z,10.47
2018-03-30T18:56:48.832Z,10.52
2018-03-30T18:59:16.580Z,10.48
2018-03-30T19:01:44.370Z,10.55
2018-03-30T19:04:12.108Z,10.70
2018-03-30T19:06:39.896Z,11.18
2018-03-30T19:09:07.789Z,11.88
2018-03-30T19:11:35.552Z,12.43
2018-03-30T19:14:04.350Z,12.82
2018-03-30T19:16:32.135Z,13.08
2018-03-30T19:18:59.853Z,13.22
2018-03-30T19:21:27.648Z,12.90
2018-03-30T19:23:55.350Z,12.75
2018-03-30T19:26:23.138Z,12.40
2018-03-30T19:28:50.902Z,12.56
2018-03-30T19:31:18.619Z,13.08
2018-03-30T19:33:46.399Z,12.92
2018-03-30T19:36:14.140Z,12.19
2018-03-30T19:38:41.883Z,12.17
2018-03-30T19:41:09.674Z,12.54
2018-03-30T19:43:37.371Z,12.26
2018-03-30T19:46:05.226Z,12.61
2018-03-30T19:48:32.991Z,12.86
2018-03-30T19:51:00.746Z,13.59
2018-03-30T19:53:28.516Z,13.43
2018-03-30T19:55:56.365Z,13.99
2018-03-30T19:58:24.139Z,14.26
2018-03-30T20:00:51.899Z,14.55
2018-03-30T20:03:19.686Z,14.67
2018-03-30T20:05:47.429Z,14.37
2018-03-30T20:08:15.198Z,14.41
2018-03-30T20:10:42.957Z,14.73
2018-03-30T20:13:10.713Z,14.91
2018-03-30T20:15:38.456Z,15.13
2018-03-30T20:18:06.255Z,14.90
2018-03-30T20:20:34.174Z,14.08
2018-03-30T20:23:01.931Z,12.85
2018-03-30T20:25:29.705Z,12.05
2018-03-30T20:27:57.591Z,11.66
2018-03-30T20:30:25.300Z,11.40
2018-03-30T20:32:53.067Z,11.21
2018-03-30T20:35:20.834Z,11.02
2018-03-30T20:37:48.571Z,10.91
2018-03-30T20:40:16.351Z,10.84
2018-03-30T20:42:44.140Z,10.80
2018-03-30T20:45:12.488Z,10.73
2018-03-30T20:47:40.246Z,10.81
2018-03-30T20:50:08.021Z,10.72
2018-03-30T20:52:35.792Z,10.69
2018-03-30T20:55:04.622Z,10.61
2018-03-30T20:57:32.341Z,10.63
2018-03-30T21:00:00.153Z,10.71
2018-03-30T21:02:27.939Z,10.74
2018-03-30T21:04:56.244Z,10.69
2018-03-30T21:07:23.998Z,10.66
2018-03-30T21:09:51.758Z,10.68
2018-03-30T21:12:20.480Z,10.61
2018-03-30T21:14:48.248Z,10.53
2018-03-30T21:17:16.013Z,10.48
2018-03-30T21:19:43.769Z,10.37
2018-03-30T21:22:12.008Z,10.28
2018-03-30T21:24:39.755Z,10.27
2018-03-30T21:27:07.682Z,10.26
2018-03-30T21:29:35.518Z,10.31
2018-03-30T21:32:04.372Z,10.22
2018-03-30T21:34:32.194Z,10.25
2018-03-30T21:36:59.997Z,10.28
2018-03-30T21:39:27.765Z,10.30
2018-03-30T21:41:55.484Z,10.33
2018-03-30T21:44:23.225Z,10.36
2018-03-30T21:46:50.982Z,10.43
2018-03-30T21:49:18.787Z,10.42
2018-03-30T21:51:46.587Z,10.40
2018-03-30T21:54:14.337Z,10.45
2018-03-30T21:56:42.116Z,10.50
2018-03-30T21:59:09.879Z,10.42
2018-03-30T22:01:37.915Z,10.38
2018-03-30T22:04:05.731Z,10.33
2018-03-30T22:06:33.539Z,10.32
2018-03-30T22:09:01.283Z,10.29
2018-03-30T22:11:29.061Z,10.22
2018-03-30T22:13:56.866Z,10.12
2018-03-30T22:16:24.638Z,10.07
2018-03-30T22:18:52.380Z,10.04
2018-03-30T22:21:20.799Z,10.12
2018-03-30T22:23:48.575Z,10.15
2018-03-30T22:26:16.320Z,10.17
2018-03-30T22:28:44.074Z,10.10
2018-03-30T22:31:11.881Z,10.06
2018-03-30T22:33:39.606Z,10.06
2018-03-30T22:36:07.376Z,10.08
2018-03-30T22:38:35.120Z,10.11
2018-03-30T22:41:02.909Z,10.09
2018-03-30T22:43:30.724Z,10.08
2018-03-30T22:45:58.872Z,10.10
2018-03-30T22:48:27.207Z,10.16
2018-03-30T22:50:54.941Z,10.11
2018-03-30T22:53:22.703Z,9.96
2018-03-30T22:55:50.518Z,9.86
2018-03-30T22:58:18.290Z,9.96
2018-03-30T23:00:46.061Z,10.10
2018-03-30T23:03:13.824Z,10.07
2018-03-30T23:05:41.561Z,10.00
2018-03-30T23:08:09.440Z,10.15
2018-03-30T23:10:37.175Z,10.13
2018-03-30T23:13:04.991Z,10.21
2018-03-30T23:15:32.737Z,10.25
2018-03-30T23:18:00.517Z,10.31
2018-03-30T23:20:28.258Z,10.27
2018-03-30T23:22:56.031Z,10.29
2018-03-30T23:25:23.792Z,10.39
2018-03-30T23:27:51.568Z,10.38
2018-03-30T23:30:19.409Z,10.36
2018-03-30T23:32:47.161Z,10.31
2018-03-30T23:35:14.890Z,10.28
2018-03-30T23:37:42.792Z,10.24
2018-03-30T23:40:10.661Z,10.26
2018-03-30T23:42:38.617Z,10.21
2018-03-30T23:45:06.394Z,10.20
2018-03-30T23:47:34.134Z,10.10
2018-03-30T23:50:01.908Z,10.13
2018-03-30T23:52:29.685Z,10.20
2018-03-30T23:54:57.486Z,10.16
2018-03-30T23:57:25.227Z,10.15
2018-03-30T23:59:52.988Z,10.18
